createdAt,value
2023-01-13T00:00:34.196Z,59.20
2023-01-13T00:03:02.430Z,59.10
2023-01-13T00:05:30.517Z,59.00
2023-01-13T00:07:58.592Z,59.00
2023-01-13T00:10:26.707Z,58.90
2023-01-13T00:12:54.838Z,58.80
2023-01-13T00:15:24.310Z,58.80
2023-01-13T00:17:52.730Z,58.80
2023-01-13T00:20:20.863Z,58.70
2023-01-13T00:22:49.066Z,58.60
2023-01-13T00:25:17.516Z,58.60
2023-01-13T00:27:45.671Z,58.50
2023-01-13T00:30:14.319Z,58.50
2023-01-13T00:32:43.843Z,58.40
2023-01-13T00:35:11.991Z,58.50
2023-01-13T00:37:41.122Z,58.50
2023-01-13T00:40:10.798Z,58.40
2023-01-13T00:42:56.376Z,58.50
2023-01-13T00:45:24.483Z,58.60
2023-01-13T00:47:53.930Z,58.50
2023-01-13T00:50:22.018Z,58.70
2023-01-13T00:52:50.150Z,59.00
2023-01-13T00:55:18.212Z,59.00
2023-01-13T00:57:46.315Z,59.00
2023-01-13T01:00:14.964Z,59.10
2023-01-13T01:02:43.062Z,59.00
2023-01-13T01:05:12.653Z,58.90
2023-01-13T01:07:40.768Z,59.00
2023-01-13T01:10:09.923Z,59.10
2023-01-13T01:12:40.724Z,59.00
2023-01-13T01:15:10.305Z,59.10
2023-01-13T01:17:38.432Z,59.10
2023-01-13T01:20:07.308Z,59.00
2023-01-13T01:22:36.815Z,59.00
2023-01-13T01:25:05.207Z,58.80
2023-01-13T01:27:33.338Z,59.00
2023-01-13T01:30:01.455Z,58.90
2023-01-13T01:32:29.601Z,58.90
2023-01-13T01:34:57.698Z,58.70
2023-01-13T01:37:25.795Z,58.90
2023-01-13T01:39:55.300Z,58.80
2023-01-13T01:42:41.839Z,58.80
2023-01-13T01:45:18.584Z,58.70
2023-01-13T01:47:48.398Z,58.80
2023-01-13T01:50:17.599Z,58.80
2023-01-13T01:52:51.324Z,58.80
2023-01-13T01:55:23.728Z,58.80
2023-01-13T01:57:55.999Z,58.70
2023-01-13T02:00:25.598Z,58.50
2023-01-13T02:02:54.101Z,58.30
2023-01-13T02:05:22.956Z,58.60
2023-01-13T02:07:55.141Z,58.50
2023-01-13T02:10:27.688Z,58.50
2023-01-13T02:12:57.475Z,58.60
2023-01-13T02:15:33.809Z,58.30
2023-01-13T02:18:26.434Z,58.40
2023-01-13T02:21:09.180Z,58.40
2023-01-13T02:24:25.736Z,58.20
2023-01-13T02:27:25.738Z,58.30
2023-01-13T02:30:21.868Z,58.30
2023-01-13T02:33:03.155Z,58.10
2023-01-13T02:35:37.775Z,58.20
2023-01-13T02:38:07.924Z,58.10
2023-01-13T02:40:41.692Z,58.20
2023-01-13T02:43:33.083Z,58.00
2023-01-13T02:46:08.721Z,58.20
2023-01-13T02:48:39.227Z,58.00
2023-01-13T02:51:11.329Z,58.10
2023-01-13T02:53:44.235Z,58.00
2023-01-13T02:56:14.462Z,57.90
2023-01-13T02:58:44.689Z,58.00
2023-01-13T03:01:14.265Z,58.30
2023-01-13T03:03:43.902Z,58.10
2023-01-13T03:06:32.076Z,58.20
2023-01-13T03:09:07.770Z,58.20
2023-01-13T03:11:45.288Z,58.00
2023-01-13T03:14:26.187Z,58.40
2023-01-13T03:17:07.083Z,58.20
2023-01-13T03:19:45.475Z,58.10
2023-01-13T03:22:22.363Z,58.30
2023-01-13T03:24:56.250Z,58.40
2023-01-13T03:27:31.363Z,58.00
2023-01-13T03:30:04.411Z,58.00
2023-01-13T03:32:36.735Z,58.20
2023-01-13T03:35:10.994Z,58.20
2023-01-13T03:37:43.778Z,58.30
2023-01-13T03:40:16.332Z,58.30
2023-01-13T03:43:08.159Z,58.20
2023-01-13T03:45:37.774Z,58.40
2023-01-13T03:48:11.289Z,58.20
2023-01-13T03:50:45.106Z,57.90
2023-01-13T03:53:18.044Z,58.30
2023-01-13T03:55:49.786Z,58.40
2023-01-13T03:58:21.485Z,58.20
2023-01-13T04:00:57.282Z,58.00
2023-01-13T04:03:33.023Z,58.00
2023-01-13T04:06:15.673Z,58.10
2023-01-13T04:08:48.697Z,58.10
2023-01-13T04:11:20.530Z,58.20
2023-01-13T04:13:49.910Z,58.20
2023-01-13T04:16:18.032Z,58.20
2023-01-13T04:18:50.880Z,58.20
2023-01-13T04:21:19.025Z,58.20
2023-01-13T04:23:51.295Z,58.40
2023-01-13T04:26:20.591Z,58.40
2023-01-13T04:28:49.064Z,58.40
2023-01-13T04:31:17.201Z,58.40
2023-01-13T04:33:46.828Z,58.40
2023-01-13T04:36:16.699Z,58.40
2023-01-13T04:38:44.790Z,58.40
2023-01-13T04:41:12.898Z,58.10
2023-01-13T04:43:41.427Z,57.90
2023-01-13T04:46:09.614Z,58.20
2023-01-13T04:48:37.807Z,58.20
2023-01-13T04:51:06.241Z,57.90
2023-01-13T04:53:35.741Z,57.90
2023-01-13T04:56:03.874Z,58.30
2023-01-13T04:58:31.991Z,58.00
2023-01-13T05:01:00.172Z,58.00
2023-01-13T05:03:28.398Z,58.20
2023-01-13T05:05:56.558Z,57.80
2023-01-13T05:08:24.725Z,58.00
2023-01-13T05:10:54.246Z,58.00
2023-01-13T05:13:39.836Z,57.90
2023-01-13T05:16:28.908Z,58.10
2023-01-13T05:18:57.201Z,57.90
2023-01-13T05:21:42.747Z,58.10
2023-01-13T05:24:28.535Z,57.90
2023-01-13T05:26:57.981Z,58.10
2023-01-13T05:29:26.081Z,57.90
2023-01-13T05:31:54.252Z,57.90
2023-01-13T05:34:22.323Z,57.90
2023-01-13T05:36:50.505Z,57.90
2023-01-13T05:39:18.608Z,57.70
2023-01-13T05:42:03.550Z,58.10
2023-01-13T05:44:33.035Z,57.90
2023-01-13T05:47:01.157Z,57.80
2023-01-13T05:49:29.303Z,57.90
2023-01-13T05:51:57.544Z,58.10
2023-01-13T05:54:25.718Z,58.10
2023-01-13T05:56:53.801Z,58.20
2023-01-13T05:59:21.931Z,58.10
2023-01-13T06:01:51.358Z,58.40
2023-01-13T06:04:19.793Z,58.60
2023-01-13T06:06:48.868Z,58.70
2023-01-13T06:09:17.279Z,58.80
2023-01-13T06:11:46.655Z,58.90
2023-01-13T06:14:14.819Z,58.70
2023-01-13T06:16:42.948Z,58.80
2023-01-13T06:19:13.961Z,58.80
2023-01-13T06:21:42.496Z,59.00
2023-01-13T06:24:10.651Z,59.00
2023-01-13T06:26:40.788Z,59.20
2023-01-13T06:29:10.129Z,59.10
2023-01-13T06:31:40.591Z,59.40
2023-01-13T06:34:13.932Z,59.10
2023-01-13T06:36:45.646Z,59.40
2023-01-13T06:39:19.911Z,59.30
2023-01-13T06:42:08.740Z,59.30
2023-01-13T06:44:36.969Z,59.30
2023-01-13T06:47:05.657Z,59.50
2023-01-13T06:49:35.298Z,59.30
2023-01-13T06:52:03.443Z,59.30
2023-01-13T06:54:31.539Z,59.40
2023-01-13T06:56:59.638Z,59.40
2023-01-13T06:59:28.103Z,59.20
2023-01-13T07:01:56.450Z,59.30
2023-01-13T07:04:24.836Z,59.30
2023-01-13T07:06:54.412Z,59.40
2023-01-13T07:09:22.549Z,59.30
2023-01-13T07:11:51.967Z,59.30
2023-01-13T07:14:37.444Z,60.00
2023-01-13T07:17:05.795Z,60.30
2023-01-13T07:19:33.893Z,60.60
2023-01-13T07:22:03.563Z,61.10
2023-01-13T07:24:31.733Z,61.40
2023-01-13T07:26:59.890Z,61.40
2023-01-13T07:29:28.031Z,61.50
2023-01-13T07:31:56.171Z,61.80
2023-01-13T07:34:24.476Z,61.60
2023-01-13T07:36:52.596Z,61.80
2023-01-13T07:39:22.149Z,62.00
2023-01-13T07:42:07.506Z,62.10
2023-01-13T07:44:35.622Z,62.00
2023-01-13T07:47:05.909Z,62.40
2023-01-13T07:49:34.110Z,62.60
2023-01-13T07:52:02.258Z,62.40
2023-01-13T07:54:40.031Z,62.00
2023-01-13T07:57:08.959Z,61.90
2023-01-13T07:59:37.167Z,61.90
2023-01-13T08:02:05.486Z,61.80
2023-01-13T08:04:34.953Z,61.50
2023-01-13T08:07:03.201Z,61.50
2023-01-13T08:09:32.749Z,61.50
2023-01-13T08:12:14.792Z,61.50
2023-01-13T08:14:43.160Z,61.20
2023-01-13T08:17:11.819Z,61.10
2023-01-13T08:19:39.972Z,60.90
2023-01-13T08:22:08.163Z,61.00
2023-01-13T08:24:37.853Z,60.90
2023-01-13T08:27:06.196Z,60.80
2023-01-13T08:29:34.398Z,60.80
2023-01-13T08:32:02.582Z,60.70
2023-01-13T08:34:30.787Z,60.90
2023-01-13T08:36:58.957Z,60.80
2023-01-13T08:39:27.144Z,61.10
2023-01-13T08:41:56.712Z,61.00
2023-01-13T08:44:25.981Z,61.10
2023-01-13T08:46:54.877Z,60.90
2023-01-13T08:49:23.356Z,60.90
2023-01-13T08:51:51.749Z,60.80
2023-01-13T08:54:20.373Z,60.90
2023-01-13T08:56:48.669Z,60.80
2023-01-13T08:59:20.059Z,60.80
2023-01-13T09:01:48.395Z,61.20
2023-01-13T09:04:19.517Z,61.20
2023-01-13T09:06:48.535Z,60.90
2023-01-13T09:13:17.173Z,60.50
2023-01-13T09:15:47.488Z,60.50
2023-01-13T09:18:15.685Z,60.40
2023-01-13T09:20:44.549Z,60.50
2023-01-13T09:23:12.710Z,60.20
2023-01-13T09:25:40.898Z,60.20
2023-01-13T09:28:09.315Z,60.40
2023-01-13T09:30:39.161Z,60.30
2023-01-13T09:33:25.954Z,60.30
2023-01-13T09:35:59.306Z,60.40
2023-01-13T09:38:27.532Z,60.30
2023-01-13T09:40:56.781Z,60.30
2023-01-13T09:43:48.182Z,60.40
2023-01-13T09:46:38.556Z,60.20
2023-01-13T09:49:15.952Z,60.10
2023-01-13T09:51:48.841Z,60.20
2023-01-13T09:54:23.756Z,60.20
2023-01-13T09:56:53.114Z,60.20
2023-01-13T09:59:21.324Z,60.20
2023-01-13T10:01:59.483Z,60.20
2023-01-13T10:04:29.355Z,60.20
2023-01-13T10:07:03.108Z,60.10
2023-01-13T10:09:42.549Z,60.30
2023-01-13T10:12:33.321Z,60.30
2023-01-13T10:15:01.496Z,60.20
2023-01-13T10:17:35.052Z,60.20
2023-01-13T10:20:17.968Z,60.30
2023-01-13T10:22:59.686Z,60.40
2023-01-13T10:25:49.702Z,60.30
2023-01-13T10:28:19.851Z,60.30
2023-01-13T10:30:48.666Z,60.20
2023-01-13T10:33:18.827Z,60.10
2023-01-13T10:36:16.104Z,59.80
2023-01-13T10:38:46.294Z,59.70
2023-01-13T10:41:21.202Z,59.80
2023-01-13T10:44:01.009Z,59.90
2023-01-13T10:46:31.047Z,59.90
2023-01-13T10:49:00.719Z,59.70
2023-01-13T10:51:31.887Z,59.90
2023-01-13T10:54:02.934Z,59.90
2023-01-13T10:56:33.519Z,59.80
2023-01-13T10:59:16.364Z,59.70
2023-01-13T11:01:54.728Z,59.60
2023-01-13T11:04:32.996Z,59.20
2023-01-13T11:07:03.668Z,59.10
2023-01-13T11:09:33.116Z,58.90
2023-01-13T11:12:03.067Z,58.90
2023-01-13T11:14:39.761Z,58.90
2023-01-13T11:17:35.383Z,58.90
2023-01-13T11:20:13.708Z,59.00
2023-01-13T11:22:47.910Z,59.00
2023-01-13T11:25:21.033Z,59.10
2023-01-13T11:27:55.557Z,59.00
2023-01-13T11:30:31.053Z,59.10
2023-01-13T11:33:16.634Z,59.10
2023-01-13T11:35:48.724Z,59.30
2023-01-13T11:38:35.534Z,59.20
2023-01-13T11:41:09.965Z,59.50
2023-01-13T11:43:47.619Z,59.10
2023-01-13T11:46:16.032Z,58.70
2023-01-13T11:48:44.920Z,58.50
2023-01-13T11:51:30.685Z,58.60
2023-01-13T11:54:30.215Z,58.60
2023-01-13T11:57:28.569Z,58.80
2023-01-13T12:00:33.385Z,58.70
2023-01-13T12:03:19.245Z,58.50
2023-01-13T12:06:02.946Z,58.50
2023-01-13T12:08:53.146Z,58.50
2023-01-13T12:11:28.781Z,58.40
2023-01-13T12:14:10.468Z,58.30
2023-01-13T12:16:47.001Z,58.40
2023-01-13T12:19:24.462Z,58.60
2023-01-13T12:22:11.514Z,58.60
2023-01-13T12:24:46.382Z,58.70
2023-01-13T12:27:23.173Z,58.60
2023-01-13T12:29:55.343Z,58.90
2023-01-13T12:32:34.192Z,58.80
2023-01-13T12:35:23.613Z,59.10
2023-01-13T12:37:57.643Z,59.20
2023-01-13T12:40:38.725Z,59.20
2023-01-13T12:43:35.304Z,59.30
2023-01-13T12:46:45.182Z,59.50
2023-01-13T12:49:21.293Z,59.70
2023-01-13T12:52:13.879Z,59.40
2023-01-13T12:55:13.668Z,59.70
2023-01-13T12:57:56.850Z,59.80
2023-01-13T13:00:33.489Z,59.90
2023-01-13T13:03:33.652Z,59.60
2023-01-13T13:06:15.494Z,59.90
2023-01-13T13:08:54.321Z,59.90
2023-01-13T13:11:55.259Z,59.70
2023-01-13T13:15:03.766Z,59.50
2023-01-13T13:17:46.352Z,59.50
2023-01-13T13:20:51.552Z,59.50
2023-01-13T13:23:36.100Z,59.40
2023-01-13T13:26:12.724Z,59.50
2023-01-13T13:28:49.811Z,59.40
2023-01-13T13:31:30.295Z,59.40
2023-01-13T13:34:14.546Z,59.80
2023-01-13T13:37:14.242Z,59.60
2023-01-13T13:40:06.427Z,59.80
2023-01-13T13:42:59.728Z,59.90
2023-01-13T13:45:46.020Z,60.00
2023-01-13T13:48:25.005Z,59.80
2023-01-13T13:50:58.223Z,60.00
2023-01-13T13:53:29.472Z,59.90
2023-01-13T13:56:00.625Z,59.80
2023-01-13T13:58:30.905Z,59.80
2023-01-13T14:01:00.778Z,59.60
2023-01-13T14:03:32.453Z,59.30
2023-01-13T14:06:04.413Z,59.20
2023-01-13T14:08:35.859Z,59.10
2023-01-13T14:11:26.736Z,59.10
2023-01-13T14:14:03.597Z,59.00
2023-01-13T14:16:34.969Z,58.90
2023-01-13T14:19:04.942Z,59.00
2023-01-13T14:21:35.188Z,59.00
2023-01-13T14:24:13.250Z,58.90
2023-01-13T14:26:41.592Z,58.90
2023-01-13T14:29:17.909Z,58.60
2023-01-13T14:31:47.513Z,58.60
2023-01-13T14:34:31.500Z,58.40
2023-01-13T14:37:04.008Z,58.70
2023-01-13T14:39:38.965Z,58.40
2023-01-13T14:42:13.401Z,58.20
2023-01-13T14:44:46.911Z,58.50
2023-01-13T14:47:33.779Z,58.40
2023-01-13T14:50:05.016Z,58.30
2023-01-13T14:52:37.009Z,58.30
2023-01-13T14:55:31.476Z,58.40
2023-01-13T14:58:24.216Z,58.40
2023-01-13T15:00:53.562Z,58.40
2023-01-13T15:03:22.793Z,58.50
2023-01-13T15:05:55.193Z,58.40
2023-01-13T15:08:37.584Z,58.50
2023-01-13T15:11:08.515Z,58.40
2023-01-13T15:13:45.990Z,57.70
2023-01-13T15:16:24.736Z,57.60
2023-01-13T15:18:53.574Z,57.50
2023-01-13T15:21:21.862Z,57.70
2023-01-13T15:23:51.432Z,57.30
2023-01-13T15:26:22.967Z,57.70
2023-01-13T15:28:52.033Z,57.90
2023-01-13T15:31:20.937Z,58.00
2023-01-13T15:33:49.638Z,57.90
2023-01-13T15:36:27.126Z,58.20
2023-01-13T15:38:57.026Z,58.00
2023-01-13T15:41:43.256Z,58.10
2023-01-13T15:44:30.164Z,58.40
2023-01-13T15:46:59.939Z,58.30
2023-01-13T15:49:34.765Z,58.40
2023-01-13T15:52:04.227Z,58.40
2023-01-13T15:54:33.692Z,58.30
2023-01-13T15:57:02.319Z,58.50
2023-01-13T15:59:30.433Z,58.50
2023-01-13T16:01:58.570Z,58.50
2023-01-13T16:04:26.680Z,58.30
2023-01-13T16:06:55.339Z,58.40
2023-01-13T16:09:23.760Z,58.60
2023-01-13T16:11:53.931Z,58.60
2023-01-13T16:14:23.291Z,58.40
2023-01-13T16:16:52.168Z,58.70
2023-01-13T16:19:20.349Z,58.60
2023-01-13T16:21:48.511Z,59.00
2023-01-13T16:24:16.665Z,59.10
2023-01-13T16:26:44.831Z,59.30
2023-01-13T16:29:14.315Z,59.40
2023-01-13T16:31:42.558Z,59.40
2023-01-13T16:34:10.714Z,59.60
2023-01-13T16:36:38.945Z,59.40
2023-01-13T16:39:21.948Z,59.60
2023-01-13T16:41:50.125Z,59.70
2023-01-13T16:44:19.895Z,59.70
2023-01-13T16:46:48.060Z,59.50
2023-01-13T16:49:17.348Z,59.50
2023-01-13T16:51:45.493Z,59.60
2023-01-13T16:54:14.294Z,59.70
2023-01-13T16:56:42.471Z,59.70
2023-01-13T16:59:13.585Z,59.70
2023-01-13T17:01:44.900Z,59.70
2023-01-13T17:04:17.276Z,59.70
2023-01-13T17:06:53.433Z,59.80
2023-01-13T17:09:23.506Z,59.80
2023-01-13T17:11:52.088Z,59.80
2023-01-13T17:14:23.232Z,59.90
2023-01-13T17:16:58.279Z,59.90
2023-01-13T17:19:27.599Z,60.10
2023-01-13T17:21:55.763Z,60.20
2023-01-13T17:24:25.581Z,60.20
2023-01-13T17:26:53.736Z,60.50
2023-01-13T17:29:25.686Z,60.40
2023-01-13T17:31:55.545Z,60.30
2023-01-13T17:34:23.785Z,60.50
2023-01-13T17:36:51.896Z,60.40
2023-01-13T17:39:22.032Z,60.20
2023-01-13T17:41:51.124Z,60.40
2023-01-13T17:44:21.044Z,60.40
2023-01-13T17:46:49.803Z,60.50
2023-01-13T17:49:21.747Z,60.60
2023-01-13T17:51:51.487Z,60.50
2023-01-13T17:54:20.038Z,60.60
2023-01-13T17:56:48.508Z,60.70
2023-01-13T17:59:18.966Z,60.40
2023-01-13T18:01:47.653Z,60.60
2023-01-13T18:04:17.537Z,60.40
2023-01-13T18:06:47.142Z,60.40
2023-01-13T18:09:15.363Z,60.50
2023-01-13T18:11:45.581Z,60.40
2023-01-13T18:14:14.644Z,60.30
2023-01-13T18:16:42.960Z,60.30
2023-01-13T18:19:29.748Z,60.40
2023-01-13T18:22:16.681Z,60.60
2023-01-13T18:25:02.468Z,60.40
2023-01-13T18:27:34.350Z,60.50
2023-01-13T18:30:04.610Z,60.50
2023-01-13T18:32:34.821Z,60.60
2023-01-13T18:35:06.717Z,60.30
2023-01-13T18:37:38.582Z,60.40
2023-01-13T18:40:09.394Z,60.40
2023-01-13T18:42:51.738Z,60.40
2023-01-13T18:45:20.868Z,60.40
2023-01-13T18:47:49.057Z,60.60
2023-01-13T18:50:18.783Z,60.30
2023-01-13T18:52:48.326Z,60.50
2023-01-13T18:55:16.639Z,60.50
2023-01-13T18:57:45.053Z,60.50
2023-01-13T19:00:16.194Z,60.50
2023-01-13T19:02:44.795Z,60.60
2023-01-13T19:05:12.998Z,60.60
2023-01-13T19:07:43.196Z,60.60
2023-01-13T19:10:14.366Z,61.00
2023-01-13T19:12:42.521Z,61.10
2023-01-13T19:15:11.808Z,61.00
2023-01-13T19:17:39.933Z,61.10
2023-01-13T19:20:09.186Z,61.00
2023-01-13T19:22:37.320Z,60.80
2023-01-13T19:25:07.528Z,60.70
2023-01-13T19:27:37.647Z,60.60
2023-01-13T19:30:08.332Z,60.30
2023-01-13T19:32:36.971Z,60.30
2023-01-13T19:35:05.759Z,60.20
2023-01-13T19:37:34.436Z,60.30
2023-01-13T19:40:09.188Z,60.20
2023-01-13T19:42:56.411Z,60.30
2023-01-13T19:45:27.750Z,60.10
2023-01-13T19:47:56.430Z,60.20
2023-01-13T19:50:24.819Z,60.50
2023-01-13T19:52:53.167Z,60.60
2023-01-13T19:55:22.236Z,60.50
2023-01-13T19:57:51.755Z,60.60
2023-01-13T20:00:21.940Z,60.40
2023-01-13T20:02:52.090Z,60.60
2023-01-13T20:05:22.734Z,60.70
2023-01-13T20:07:51.444Z,60.70
2023-01-13T20:10:21.317Z,60.60
2023-01-13T20:12:51.063Z,60.80
2023-01-13T20:15:19.609Z,60.70
2023-01-13T20:17:48.070Z,60.70
2023-01-13T20:20:18.479Z,60.60
2023-01-13T20:22:46.633Z,60.80
2023-01-13T20:25:16.999Z,60.50
2023-01-13T20:27:45.837Z,60.40
2023-01-13T20:30:16.321Z,60.30
2023-01-13T20:32:45.216Z,60.60
2023-01-13T20:35:13.423Z,60.70
2023-01-13T20:37:43.273Z,60.70
2023-01-13T20:40:15.752Z,60.70
2023-01-13T20:42:44.785Z,60.40
2023-01-13T20:45:17.796Z,60.40
2023-01-13T20:47:47.099Z,60.60
2023-01-13T20:50:16.979Z,60.00
2023-01-13T20:52:45.834Z,60.20
2023-01-13T20:55:14.758Z,60.00
2023-01-13T20:57:48.859Z,60.50
2023-01-13T21:00:20.089Z,60.40
2023-01-13T21:02:48.292Z,60.60
2023-01-13T21:05:16.944Z,60.50
2023-01-13T21:07:45.270Z,60.50
2023-01-13T21:10:13.432Z,60.50
2023-01-13T21:12:58.400Z,60.50
2023-01-13T21:15:28.206Z,60.30
2023-01-13T21:18:14.254Z,60.00
2023-01-13T21:20:43.310Z,60.30
2023-01-13T21:23:11.950Z,60.70
2023-01-13T21:25:41.141Z,60.60
2023-01-13T21:28:11.847Z,60.80
2023-01-13T21:30:41.561Z,60.70
2023-01-13T21:33:13.881Z,60.70
2023-01-13T21:35:42.679Z,60.80
2023-01-13T21:38:12.009Z,60.70
2023-01-13T21:40:40.362Z,60.70
2023-01-13T21:43:30.054Z,60.70
2023-01-13T21:46:31.830Z,60.70
2023-01-13T21:49:00.020Z,60.70
2023-01-13T21:51:28.219Z,60.60
2023-01-13T21:53:56.376Z,60.60
2023-01-13T21:56:25.028Z,60.60
2023-01-13T21:58:53.340Z,60.60
2023-01-13T22:01:23.038Z,60.50
2023-01-13T22:04:08.804Z,60.40
2023-01-13T22:06:37.581Z,60.50
2023-01-13T22:09:06.011Z,60.40
2023-01-13T22:11:34.281Z,60.30
2023-01-13T22:14:09.348Z,60.30
2023-01-13T22:16:42.027Z,60.40
2023-01-13T22:19:11.359Z,60.30
2023-01-13T22:21:40.079Z,60.30
2023-01-13T22:24:08.620Z,60.40
2023-01-13T22:26:36.905Z,60.40
2023-01-13T22:29:05.147Z,60.40
2023-01-13T22:31:33.409Z,60.40
2023-01-13T22:34:02.916Z,60.00
2023-01-13T22:36:31.034Z,59.90
2023-01-13T22:39:00.598Z,59.60
2023-01-13T22:41:28.971Z,59.80
2023-01-13T22:43:57.283Z,59.60
2023-01-13T22:46:25.479Z,59.70
2023-01-13T22:48:55.685Z,59.40
2023-01-13T22:51:26.604Z,59.80
2023-01-13T22:53:55.793Z,59.80
2023-01-13T22:56:26.050Z,60.10
2023-01-13T22:58:54.967Z,59.60
2023-01-13T23:01:24.555Z,60.00
2023-01-13T23:03:53.145Z,59.90
2023-01-13T23:06:22.784Z,59.90
2023-01-13T23:08:53.115Z,59.80
2023-01-13T23:11:23.516Z,60.00
2023-01-13T23:13:51.972Z,60.00
2023-01-13T23:16:22.040Z,59.90
2023-01-13T23:18:50.347Z,59.90
2023-01-13T23:21:21.507Z,59.20
2023-01-13T23:23:50.354Z,59.30
2023-01-13T23:26:20.740Z,59.80
2023-01-13T23:28:49.295Z,59.60
2023-01-13T23:31:19.605Z,59.90
2023-01-13T23:33:48.760Z,59.80
2023-01-13T23:36:18.541Z,59.90
2023-01-13T23:38:47.025Z,59.80
2023-01-13T23:41:17.156Z,59.80
2023-01-13T23:43:52.222Z,59.80
2023-01-13T23:46:21.172Z,59.90
2023-01-13T23:48:49.595Z,59.90
2023-01-13T23:51:18.077Z,60.00
2023-01-13T23:53:48.049Z,60.00
2023-01-13T23:56:17.517Z,60.00
2023-01-13T23:58:47.957Z,60.00
